Time;durP1;ratioP1;P1;durP2;ratioP2;P2;SDS_P1;SDS_P2;PMS_P1;PMS_P2;Temp;Humidity;BMP_temperature;BMP_pressure;BME280_temperature;BME280_humidity;BME280_pressure;Samples;Min_cycle;Max_cycle;Signal;HPM_P1;HPM_P2
2024/03/15 00:02:20;;;;;;;329.87;83.43;;;;;7.30;96679.00;;;;5008450;28;20431;-67
2024/03/15 00:05:10;;;;;;;322.77;80.17;;;;;7.40;96681.00;;;;5007897;28;20423;-66
2024/03/15 00:07:59;;;;;;;328.63;82.47;;;;;7.70;96689.00;;;;5007792;28;20960;-67
2024/03/15 00:10:48;;;;;;;335.67;85.07;;;;;7.60;96681.00;;;;5012890;28;20435;-67
2024/03/15 00:13:37;;;;;;;343.70;89.07;;;;;7.30;96677.00;;;;5011615;28;20475;-67
2024/03/15 00:16:28;;;;;;;331.60;83.57;;;;;7.40;96682.00;;;;5011994;28;20425;-65
2024/03/15 00:19:17;;;;;;;336.93;85.83;;;;;7.40;96676.00;;;;5026881;28;20481;-65
2024/03/15 00:22:07;;;;;;;328.13;80.50;;;;;7.20;96671.00;;;;5025728;28;20427;-65
2024/03/15 00:24:56;;;;;;;331.63;84.67;;;;;6.90;96670.00;;;;5022836;28;20844;-66
2024/03/15 00:27:46;;;;;;;328.37;83.80;;;;;6.70;96668.00;;;;5012128;28;20440;-65
2024/03/15 00:30:35;;;;;;;337.37;88.93;;;;;6.70;96663.00;;;;5013698;28;20507;-66
2024/03/15 00:33:24;;;;;;;316.47;82.30;;;;;6.50;96661.00;;;;5013472;28;20479;-66
2024/03/15 00:36:17;;;;;;;314.77;82.50;;;;;6.00;96650.00;;;;5009821;28;20576;-66
2024/03/15 00:39:07;;;;;;;317.63;81.17;;;;;6.50;96657.00;;;;5020329;28;20444;-65
2024/03/15 00:41:56;;;;;;;322.00;80.10;;;;;6.50;96652.00;;;;5011383;28;20439;-66
2024/03/15 00:44:45;;;;;;;321.57;80.70;;;;;5.90;96648.00;;;;5013122;28;20774;-66
2024/03/15 00:47:35;;;;;;;334.60;84.87;;;;;6.10;96643.00;;;;5013360;28;20435;-65
2024/03/15 00:50:24;;;;;;;322.97;79.83;;;;;6.30;96641.00;;;;5014637;28;20514;-65
2024/03/15 00:53:13;;;;;;;323.80;79.57;;;;;6.30;96636.00;;;;5022959;28;20468;-65
2024/03/15 00:56:03;;;;;;;322.00;80.03;;;;;6.80;96637.00;;;;5026151;28;20831;-65
2024/03/15 00:58:54;;;;;;;326.43;81.40;;;;;6.80;96640.00;;;;5015292;28;20427;-65
2024/03/15 01:01:43;;;;;;;323.33;80.00;;;;;6.70;96629.00;;;;5014164;28;20436;-65
2024/03/15 01:04:32;;;;;;;333.13;85.67;;;;;6.10;96629.00;;;;5009316;28;20439;-65
2024/03/15 01:07:21;;;;;;;323.33;79.77;;;;;5.90;96615.00;;;;5020856;28;20432;-65
2024/03/15 01:10:10;;;;;;;322.73;79.70;;;;;5.20;96621.00;;;;5008154;28;20800;-67
2024/03/15 01:13:03;;;;;;;326.70;82.23;;;;;6.00;96621.00;;;;5019720;28;20476;-65
2024/03/15 01:15:52;;;;;;;325.23;80.00;;;;;6.40;96633.00;;;;5014447;28;20455;-65
2024/03/15 01:18:41;;;;;;;338.97;85.20;;;;;6.30;96622.00;;;;5025065;28;20510;-65
2024/03/15 01:21:30;;;;;;;334.10;84.77;;;;;6.20;96626.00;;;;5013263;28;20417;-65
2024/03/15 01:24:19;;;;;;;320.60;78.03;;;;;6.10;96628.00;;;;5008823;28;20448;-65
2024/03/15 01:27:09;;;;;;;321.13;75.97;;;;;5.80;96623.00;;;;5012229;28;20474;-65
2024/03/15 01:29:58;;;;;;;326.40;80.00;;;;;5.80;96615.00;;;;5009694;28;20498;-65
2024/03/15 01:32:47;;;;;;;318.27;78.63;;;;;5.90;96619.00;;;;5012320;28;20579;-66
2024/03/15 01:35:36;;;;;;;342.53;86.70;;;;;5.80;96609.00;;;;5012193;28;20451;-65
2024/03/15 01:38:26;;;;;;;322.40;77.83;;;;;5.80;96607.00;;;;5013723;28;20436;-65
2024/03/15 01:41:15;;;;;;;324.33;78.33;;;;;5.70;96605.00;;;;5008014;28;20429;-65
2024/03/15 01:44:04;;;;;;;321.50;76.77;;;;;5.60;96600.00;;;;5007932;28;20436;-66
2024/03/15 01:46:53;;;;;;;323.37;79.13;;;;;5.50;96592.00;;;;5012596;28;20968;-66
2024/03/15 01:49:42;;;;;;;331.10;84.33;;;;;5.50;96604.00;;;;5011899;28;20435;-66
2024/03/15 01:52:33;;;;;;;335.07;87.33;;;;;5.70;96604.00;;;;5014075;28;20479;-65
2024/03/15 01:55:23;;;;;;;319.37;81.83;;;;;5.70;96594.00;;;;5014810;28;20436;-65
2024/03/15 01:58:12;;;;;;;314.53;75.83;;;;;5.80;96585.00;;;;5008169;28;20437;-66
2024/03/15 02:01:02;;;;;;;330.83;81.77;;;;;6.10;96595.00;;;;5010625;28;20412;-65
2024/03/15 02:03:52;;;;;;;325.10;77.50;;;;;6.10;96593.00;;;;5016623;28;20460;-65
2024/03/15 02:06:41;;;;;;;338.53;83.67;;;;;5.80;96587.00;;;;5017076;28;20474;-65
2024/03/15 02:09:30;;;;;;;331.47;82.27;;;;;5.60;96584.00;;;;5015275;28;20472;-65
2024/03/15 02:12:19;;;;;;;322.03;76.57;;;;;5.40;96582.00;;;;5014699;28;20476;-65
2024/03/15 02:15:09;;;;;;;318.40;75.10;;;;;5.50;96595.00;;;;5016798;28;20421;-66
2024/03/15 02:17:58;;;;;;;323.53;77.97;;;;;5.60;96587.00;;;;5022887;28;20440;-66
2024/03/15 02:20:47;;;;;;;335.93;82.10;;;;;5.50;96586.00;;;;5028196;28;20432;-66
2024/03/15 02:23:36;;;;;;;333.77;81.83;;;;;5.20;96575.00;;;;5016381;28;21014;-66
2024/03/15 02:26:26;;;;;;;321.30;77.00;;;;;4.90;96574.00;;;;5016095;28;20814;-66
2024/03/15 02:29:16;;;;;;;321.03;74.60;;;;;4.60;96557.00;;;;5024540;28;20424;-67
2024/03/15 02:32:06;;;;;;;324.77;78.10;;;;;4.90;96567.00;;;;5015493;28;20447;-66
2024/03/15 02:34:55;;;;;;;323.33;77.27;;;;;5.00;96566.00;;;;5012523;28;20920;-66
2024/03/15 02:37:44;;;;;;;325.43;81.13;;;;;4.50;96563.00;;;;5013811;28;20441;-67
2024/03/15 02:40:34;;;;;;;332.23;86.87;;;;;4.60;96579.00;;;;5013878;28;20808;-66
2024/03/15 02:43:23;;;;;;;308.63;74.63;;;;;4.80;96576.00;;;;5017298;28;20455;-66
2024/03/15 02:46:12;;;;;;;309.90;74.10;;;;;5.00;96575.00;;;;5023503;28;20941;-66
2024/03/15 02:49:03;;;;;;;322.90;79.70;;;;;5.10;96571.00;;;;5015232;28;20783;-66
2024/03/15 02:51:52;;;;;;;317.70;74.33;;;;;5.20;96573.00;;;;5017595;28;20445;-66
2024/03/15 02:54:41;;;;;;;324.30;80.40;;;;;5.30;96580.00;;;;5016053;28;20852;-66
2024/03/15 02:57:31;;;;;;;330.50;82.20;;;;;5.20;96585.00;;;;5016329;28;20428;-67
2024/03/15 03:00:20;;;;;;;319.03;75.90;;;;;4.80;96575.00;;;;5014414;28;20783;-65
2024/03/15 03:03:11;;;;;;;316.97;75.87;;;;;5.00;96570.00;;;;5010214;28;20441;-66
2024/03/15 03:06:01;;;;;;;312.47;74.20;;;;;5.00;96573.00;;;;5015950;28;20960;-66
2024/03/15 03:08:50;;;;;;;320.40;78.83;;;;;5.10;96581.00;;;;5015606;28;20443;-66
2024/03/15 03:11:40;;;;;;;326.80;81.87;;;;;5.10;96584.00;;;;5013929;28;20420;-66
2024/03/15 03:14:29;;;;;;;322.47;77.20;;;;;5.10;96578.00;;;;5012700;28;20483;-67
2024/03/15 03:17:18;;;;;;;322.53;75.17;;;;;5.00;96581.00;;;;5021898;28;20424;-66
2024/03/15 03:20:11;;;;;;;327.03;76.00;;;;;5.00;96577.00;;;;5015640;28;20435;-67
2024/03/15 03:23:00;;;;;;;322.00;76.40;;;;;5.10;96578.00;;;;5010165;28;20444;-66
2024/03/15 03:25:50;;;;;;;317.70;74.93;;;;;4.90;96583.00;;;;5027915;28;20424;-66
2024/03/15 03:28:39;;;;;;;324.27;80.53;;;;;4.60;96581.00;;;;5014229;28;20447;-67
2024/03/15 03:31:28;;;;;;;315.97;74.40;;;;;4.90;96579.00;;;;5017089;28;20446;-66
2024/03/15 03:34:18;;;;;;;318.87;75.70;;;;;4.90;96588.00;;;;5024513;28;20452;-66
2024/03/15 03:37:07;;;;;;;315.40;76.60;;;;;5.00;96586.00;;;;5014430;28;20806;-66
2024/03/15 03:39:56;;;;;;;322.27;74.97;;;;;5.20;96584.00;;;;5008003;28;20421;-65
2024/03/15 03:42:46;;;;;;;335.07;82.60;;;;;5.20;96579.00;;;;5014770;28;20552;-66
2024/03/15 03:45:36;;;;;;;346.37;88.50;;;;;4.90;96587.00;;;;5012687;28;20443;-66
2024/03/15 03:48:27;;;;;;;325.43;75.43;;;;;4.80;96589.00;;;;5013965;28;20424;-66
2024/03/15 03:51:17;;;;;;;321.67;75.57;;;;;4.60;96580.00;;;;5014826;28;20431;-66
2024/03/15 03:54:06;;;;;;;314.33;74.13;;;;;4.60;96583.00;;;;5027131;28;20479;-67
2024/03/15 03:56:56;;;;;;;315.13;72.53;;;;;4.60;96576.00;;;;5014026;28;20874;-67
2024/03/15 03:59:46;;;;;;;340.97;83.50;;;;;4.80;96575.00;;;;5014789;28;20824;-66
2024/03/15 04:02:35;;;;;;;336.30;82.53;;;;;4.90;96582.00;;;;5013397;28;20447;-67
2024/03/15 04:05:24;;;;;;;321.20;76.70;;;;;4.90;96582.00;;;;5011713;28;20430;-66
2024/03/15 04:08:13;;;;;;;316.23;73.57;;;;;4.50;96574.00;;;;5011939;28;20440;-66
2024/03/15 04:11:03;;;;;;;316.50;74.33;;;;;4.10;96569.00;;;;5015165;28;20443;-67
2024/03/15 04:13:52;;;;;;;318.97;73.80;;;;;4.80;96575.00;;;;5013530;28;20463;-66
2024/03/15 04:16:42;;;;;;;330.83;78.87;;;;;5.00;96579.00;;;;5015618;28;20435;-66
2024/03/15 04:19:33;;;;;;;330.33;79.27;;;;;4.90;96585.00;;;;5015375;28;20435;-66
2024/03/15 04:22:22;;;;;;;321.50;75.53;;;;;4.40;96583.00;;;;5016485;28;20428;-66
2024/03/15 04:25:11;;;;;;;323.87;75.90;;;;;4.30;96576.00;;;;5014092;28;20437;-65
2024/03/15 04:28:01;;;;;;;322.00;75.43;;;;;4.70;96582.00;;;;5015644;28;20432;-65
2024/03/15 04:30:50;;;;;;;326.17;77.03;;;;;4.70;96599.00;;;;5012888;28;20420;-65
2024/03/15 04:33:39;;;;;;;322.23;75.50;;;;;4.70;96584.00;;;;5016719;28;20918;-65
2024/03/15 04:36:30;;;;;;;321.67;72.67;;;;;4.30;96582.00;;;;5015234;28;20960;-66
2024/03/15 04:39:19;;;;;;;320.50;75.20;;;;;4.10;96580.00;;;;5023201;28;20428;-65
2024/03/15 04:42:08;;;;;;;324.40;73.97;;;;;4.20;96588.00;;;;5007938;28;20436;-65
2024/03/15 04:45:00;;;;;;;322.00;73.57;;;;;4.60;96574.00;;;;5013566;28;20420;-66
2024/03/15 04:47:51;;;;;;;321.10;74.10;;;;;5.00;96583.00;;;;5013667;28;20428;-66
2024/03/15 04:50:41;;;;;;;340.43;81.83;;;;;5.00;96579.00;;;;5015548;28;20462;-66
2024/03/15 04:53:30;;;;;;;326.47;75.57;;;;;4.90;96587.00;;;;5042583;23;20494;-70
2024/03/15 04:56:19;;;;;;;324.47;74.93;;;;;4.30;96590.00;;;;5018494;28;20431;-70
2024/03/15 04:59:09;;;;;;;326.40;75.27;;;;;4.60;96592.00;;;;5028600;28;20427;-70
2024/03/15 05:01:58;;;;;;;327.77;75.03;;;;;4.40;96600.00;;;;5032193;28;20423;-68
2024/03/15 05:04:47;;;;;;;339.43;83.03;;;;;4.30;96595.00;;;;5022420;28;20447;-70
2024/03/15 05:07:36;;;;;;;342.67;83.93;;;;;4.50;96580.00;;;;5018932;28;20415;-69
2024/03/15 05:10:25;;;;;;;325.07;74.83;;;;;4.40;96587.00;;;;5015968;28;20828;-70
2024/03/15 05:13:14;;;;;;;323.70;73.63;;;;;4.20;96595.00;;;;5024280;28;20451;-70
2024/03/15 05:16:04;;;;;;;317.40;80.63;;;;;4.30;96595.00;;;;5019352;28;20428;-69
2024/03/15 05:18:53;;;;;;;339.00;82.37;;;;;4.40;96586.00;;;;5014258;28;20466;-71
2024/03/15 05:21:42;;;;;;;338.93;80.03;;;;;4.10;96595.00;;;;5020855;28;20952;-71
2024/03/15 05:24:32;;;;;;;326.17;74.77;;;;;4.20;96595.00;;;;5028298;28;20436;-70
2024/03/15 05:27:21;;;;;;;323.33;71.77;;;;;4.40;96593.00;;;;5002446;28;20838;-69
2024/03/15 05:30:11;;;;;;;325.57;72.83;;;;;4.70;96588.00;;;;5008704;28;20439;-69
2024/03/15 05:33:01;;;;;;;325.13;73.60;;;;;5.00;96586.00;;;;5006259;28;20459;-70
2024/03/15 05:35:51;;;;;;;337.40;78.30;;;;;5.00;96593.00;;;;5025536;28;20500;-70
2024/03/15 05:38:40;;;;;;;332.67;77.53;;;;;4.10;96606.00;;;;5019901;28;20453;-70
2024/03/15 05:41:30;;;;;;;328.10;74.30;;;;;3.70;96587.00;;;;5032347;28;20431;-71
2024/03/15 05:44:19;;;;;;;349.57;84.87;;;;;4.20;96593.00;;;;5030589;28;20942;-69
2024/03/15 05:47:08;;;;;;;332.97;76.60;;;;;4.90;96605.00;;;;5032099;28;20428;-70
2024/03/15 05:49:57;;;;;;;330.47;74.77;;;;;4.80;96599.00;;;;5019879;28;20568;-69
2024/03/15 05:52:46;;;;;;;345.70;82.83;;;;;5.00;96604.00;;;;5019575;28;20423;-69
2024/03/15 05:55:35;;;;;;;349.40;84.87;;;;;4.80;96613.00;;;;5017925;28;20525;-69
2024/03/15 05:58:25;;;;;;;328.83;75.50;;;;;5.10;96604.00;;;;5034450;28;20821;-67
2024/03/15 06:01:14;;;;;;;332.57;77.87;;;;;4.80;96610.00;;;;5030636;28;20518;-69
2024/03/15 06:04:03;;;;;;;328.40;75.97;;;;;4.90;96606.00;;;;5022606;28;20451;-68
2024/03/15 06:06:52;;;;;;;337.67;80.53;;;;;4.90;96617.00;;;;5026925;28;20423;-70
2024/03/15 06:09:41;;;;;;;347.63;86.47;;;;;5.20;96610.00;;;;5028656;28;20443;-69
2024/03/15 06:12:31;;;;;;;321.97;72.97;;;;;5.30;96614.00;;;;5016691;28;20466;-68
2024/03/15 06:15:21;;;;;;;330.37;75.73;;;;;5.50;96619.00;;;;5016964;28;20470;-68
2024/03/15 06:18:10;;;;;;;337.60;80.97;;;;;5.50;96625.00;;;;5023388;28;20444;-69
2024/03/15 06:21:00;;;;;;;353.47;87.67;;;;;5.30;96623.00;;;;5032089;28;20456;-68
2024/03/15 06:23:49;;;;;;;350.70;85.90;;;;;5.70;96618.00;;;;5032015;28;20447;-69
2024/03/15 06:26:40;;;;;;;350.20;87.50;;;;;6.20;96628.00;;;;5027555;28;20462;-69
2024/03/15 06:29:33;;;;;;;323.23;74.27;;;;;6.60;96629.00;;;;5024290;28;20898;-68
2024/03/15 06:32:27;;;;;;;332.53;77.90;;;;;6.10;96629.00;;;;5027976;28;20424;-70
2024/03/15 06:35:19;;;;;;;333.60;79.37;;;;;5.60;96620.00;;;;5029012;28;20494;-69
2024/03/15 06:38:10;;;;;;;340.77;82.33;;;;;6.20;96627.00;;;;5031578;28;20446;-69
2024/03/15 06:41:13;;;;;;;342.73;82.93;;;;;6.90;96635.00;;;;5022111;28;20454;-69
2024/03/15 06:44:19;;;;;;;336.07;79.17;;;;;6.60;96632.00;;;;5035776;28;20448;-69
2024/03/15 06:47:18;;;;;;;337.63;80.47;;;;;6.50;96631.00;;;;5030328;28;20447;-68
2024/03/15 06:50:20;;;;;;;337.60;81.37;;;;;7.10;96638.00;;;;5034215;28;20445;-70
2024/03/15 06:53:08;;;;;;;337.20;82.40;;;;;7.30;96641.00;;;;5025310;28;20516;-70
2024/03/15 06:55:58;;;;;;;338.50;82.30;;;;;7.60;96641.00;;;;5028536;28;20477;-68
2024/03/15 06:58:47;;;;;;;360.90;93.73;;;;;7.80;96638.00;;;;5026828;28;20443;-69
2024/03/15 07:01:37;;;;;;;353.07;91.37;;;;;7.90;96647.00;;;;5031392;28;20442;-69
2024/03/15 07:04:26;;;;;;;340.33;83.27;;;;;8.00;96650.00;;;;5024604;28;20791;-69
2024/03/15 07:07:15;;;;;;;340.83;83.17;;;;;8.20;96639.00;;;;5029236;28;20439;-68
2024/03/15 07:10:05;;;;;;;344.43;87.00;;;;;8.20;96646.00;;;;5025877;28;20436;-70
2024/03/15 07:12:54;;;;;;;345.53;87.20;;;;;8.30;96647.00;;;;5022916;28;20454;-68
2024/03/15 07:15:44;;;;;;;359.50;93.37;;;;;8.80;96643.00;;;;5026373;28;20463;-70
2024/03/15 07:18:33;;;;;;;348.63;88.50;;;;;9.10;96653.00;;;;5038971;28;20563;-69
2024/03/15 07:21:23;;;;;;;342.90;87.17;;;;;9.10;96646.00;;;;5031852;28;20201;-68
2024/03/15 07:24:12;;;;;;;339.70;85.23;;;;;9.10;96650.00;;;;5034682;28;20220;-69
2024/03/15 07:27:01;;;;;;;346.30;89.20;;;;;8.90;96655.00;;;;5022789;28;20204;-69
2024/03/15 07:29:50;;;;;;;362.13;96.27;;;;;9.30;96650.00;;;;5029589;28;20204;-68
2024/03/15 07:32:39;;;;;;;361.73;98.57;;;;;9.40;96655.00;;;;5028824;28;20204;-69
2024/03/15 07:35:29;;;;;;;360.80;97.77;;;;;10.10;96670.00;;;;5034263;28;20229;-68
2024/03/15 07:38:18;;;;;;;347.07;94.50;;;;;10.30;96669.00;;;;5028905;28;20560;-70
2024/03/15 07:41:10;;;;;;;349.77;94.83;;;;;10.00;96657.00;;;;5030460;28;20200;-69
2024/03/15 07:44:00;;;;;;;337.13;86.67;;;;;10.40;96663.00;;;;5019571;28;20259;-69
2024/03/15 07:46:50;;;;;;;366.23;102.60;;;;;10.60;96666.00;;;;5025392;28;20199;-69
2024/03/15 07:49:39;;;;;;;355.83;95.97;;;;;11.30;96672.00;;;;5024208;28;20220;-69
2024/03/15 07:52:29;;;;;;;350.50;96.50;;;;;11.80;96676.00;;;;5029262;28;20211;-68
2024/03/15 07:55:20;;;;;;;348.20;95.20;;;;;12.00;96677.00;;;;5030030;28;20220;-69
2024/03/15 07:58:10;;;;;;;351.73;99.50;;;;;12.10;96687.00;;;;5030420;28;20216;-68
2024/03/15 08:00:59;;;;;;;366.23;109.03;;;;;12.40;96686.00;;;;5019308;28;20638;-69
2024/03/15 08:03:48;;;;;;;381.43;115.50;;;;;12.50;96685.00;;;;5030163;28;20216;-70
2024/03/15 08:06:38;;;;;;;350.57;99.63;;;;;12.80;96692.00;;;;5025074;28;20287;-69
2024/03/15 08:09:27;;;;;;;355.80;103.03;;;;;12.70;96676.00;;;;5024890;28;20669;-69
2024/03/15 08:12:16;;;;;;;360.63;107.97;;;;;13.00;96691.00;;;;5027529;28;20549;-70
2024/03/15 08:15:07;;;;;;;349.63;108.07;;;;;12.90;96687.00;;;;5032060;28;20211;-69
2024/03/15 08:17:56;;;;;;;359.97;108.77;;;;;12.90;96694.00;;;;5023592;28;20200;-70
2024/03/15 08:20:47;;;;;;;395.50;126.77;;;;;13.00;96687.00;;;;5029235;28;20578;-70
2024/03/15 08:23:37;;;;;;;370.13;117.27;;;;;13.10;96688.00;;;;5025458;28;20274;-69
2024/03/15 08:26:28;;;;;;;364.27;115.27;;;;;13.10;96694.00;;;;5029889;28;20307;-69
2024/03/15 08:29:18;;;;;;;364.07;116.33;;;;;13.30;96693.00;;;;5031731;28;20200;-67
2024/03/15 08:32:07;;;;;;;372.53;119.63;;;;;13.60;96691.00;;;;5010665;28;20211;-68
2024/03/15 08:34:57;;;;;;;363.47;117.10;;;;;13.70;96694.00;;;;5024575;28;20569;-69
2024/03/15 08:37:46;;;;;;;378.03;124.10;;;;;13.80;96690.00;;;;5016130;28;20214;-68
2024/03/15 08:40:35;;;;;;;358.00;114.97;;;;;13.80;96696.00;;;;5030777;28;20204;-69
2024/03/15 08:43:24;;;;;;;365.00;121.43;;;;;13.50;96688.00;;;;5023961;28;20254;-68
2024/03/15 08:46:13;;;;;;;362.20;116.83;;;;;13.60;96683.00;;;;5028697;28;20203;-68
2024/03/15 08:49:03;;;;;;;364.67;117.37;;;;;13.90;96684.00;;;;5026680;28;20681;-70
2024/03/15 08:51:53;;;;;;;371.17;122.63;;;;;13.80;96679.00;;;;5018222;28;20205;-69
2024/03/15 08:54:42;;;;;;;389.30;134.80;;;;;14.00;96681.00;;;;5031275;28;20620;-68
2024/03/15 08:57:32;;;;;;;367.60;124.80;;;;;13.90;96671.00;;;;5015325;28;20724;-68
2024/03/15 09:00:23;;;;;;;364.93;120.20;;;;;13.90;96684.00;;;;5017076;28;20208;-68
2024/03/15 09:03:13;;;;;;;368.80;128.00;;;;;14.10;96676.00;;;;5027041;28;20709;-69
2024/03/15 09:06:06;;;;;;;365.10;123.77;;;;;14.10;96685.00;;;;5026735;28;20204;-68
2024/03/15 09:08:56;;;;;;;372.07;127.87;;;;;14.30;96683.00;;;;5020667;28;20207;-69
2024/03/15 09:11:46;;;;;;;376.70;130.77;;;;;14.60;96686.00;;;;5024528;28;20747;-70
2024/03/15 09:14:36;;;;;;;371.73;128.53;;;;;14.80;96679.00;;;;5026462;28;20224;-68
2024/03/15 09:17:25;;;;;;;364.77;123.73;;;;;15.20;96681.00;;;;5021179;28;20224;-68
2024/03/15 09:20:19;;;;;;;369.00;129.40;;;;;15.60;96667.00;;;;5033168;28;20200;-70
2024/03/15 09:23:09;;;;;;;372.00;135.03;;;;;15.90;96668.00;;;;5030744;28;20708;-69
2024/03/15 09:25:58;;;;;;;368.97;136.00;;;;;15.90;96662.00;;;;5036500;28;20735;-69
2024/03/15 09:28:49;;;;;;;389.57;149.53;;;;;16.40;96663.00;;;;5033609;28;20220;-70
2024/03/15 09:31:40;;;;;;;375.67;145.40;;;;;16.70;96668.00;;;;5020048;28;20249;-69
2024/03/15 09:34:33;;;;;;;380.20;151.30;;;;;17.10;96667.00;;;;5033525;28;20236;-69
2024/03/15 09:37:23;;;;;;;374.83;147.03;;;;;16.20;96663.00;;;;5035236;28;20274;-70
2024/03/15 09:40:12;;;;;;;370.37;150.93;;;;;16.40;96661.00;;;;5032270;28;20208;-69
2024/03/15 09:43:02;;;;;;;374.93;150.93;;;;;16.90;96666.00;;;;5028311;28;20232;-69
2024/03/15 09:45:51;;;;;;;380.80;154.50;;;;;17.10;96667.00;;;;5038470;28;20204;-69
2024/03/15 09:48:40;;;;;;;366.50;153.93;;;;;17.60;96666.00;;;;5039429;28;20224;-70
2024/03/15 09:51:31;;;;;;;375.00;154.97;;;;;18.00;96658.00;;;;5022773;28;20224;-70
2024/03/15 09:54:21;;;;;;;378.90;163.40;;;;;18.10;96655.00;;;;5033199;28;20268;-68
2024/03/15 09:57:11;;;;;;;379.07;166.13;;;;;18.10;96657.00;;;;5027567;28;20225;-69
2024/03/15 10:00:00;;;;;;;379.13;170.13;;;;;18.40;96653.00;;;;5023407;28;20295;-69
2024/03/15 10:02:49;;;;;;;388.07;177.13;;;;;18.60;96647.00;;;;5025192;28;20211;-69
2024/03/15 10:05:38;;;;;;;398.47;191.30;;;;;18.90;96648.00;;;;5023571;28;20341;-70
2024/03/15 10:08:28;;;;;;;384.47;190.17;;;;;18.50;96657.00;;;;5024127;28;20204;-69
2024/03/15 10:11:17;;;;;;;383.23;181.90;;;;;18.00;96649.00;;;;5035787;28;20205;-69
2024/03/15 10:14:07;;;;;;;379.00;185.60;;;;;18.00;96649.00;;;;5036949;28;20231;-69
2024/03/15 10:16:57;;;;;;;378.57;184.70;;;;;18.20;96646.00;;;;5041102;28;20213;-70
2024/03/15 10:19:46;;;;;;;390.57;187.97;;;;;18.50;96648.00;;;;5029407;28;20204;-69
2024/03/15 10:22:35;;;;;;;383.07;188.20;;;;;18.00;96641.00;;;;5019459;28;20209;-70
2024/03/15 10:25:25;;;;;;;387.07;190.43;;;;;17.80;96641.00;;;;5026626;28;20202;-68
2024/03/15 10:28:19;;;;;;;383.87;195.63;;;;;17.70;96636.00;;;;5041047;28;20205;-70
2024/03/15 10:31:08;;;;;;;380.07;183.93;;;;;18.80;96625.00;;;;5034125;28;20235;-69
2024/03/15 10:33:58;;;;;;;386.33;192.33;;;;;19.20;96628.00;;;;5023973;28;20599;-69
2024/03/15 10:36:47;;;;;;;392.60;200.93;;;;;18.50;96625.00;;;;5026589;28;20217;-69
2024/03/15 10:39:37;;;;;;;389.30;201.27;;;;;19.00;96623.00;;;;5025571;28;20670;-69
2024/03/15 10:42:26;;;;;;;384.13;198.93;;;;;19.80;96621.00;;;;5025506;28;20196;-69
2024/03/15 10:45:15;;;;;;;378.67;200.90;;;;;19.90;96617.00;;;;5034808;28;20246;-69
2024/03/15 10:48:06;;;;;;;386.60;208.23;;;;;19.40;96619.00;;;;5027520;28;20197;-70
2024/03/15 10:50:55;;;;;;;400.70;222.03;;;;;20.20;96620.00;;;;5017487;28;20208;-69
2024/03/15 10:53:45;;;;;;;393.20;227.70;;;;;19.90;96624.00;;;;5035083;28;20243;-69
2024/03/15 10:56:34;;;;;;;386.53;231.97;;;;;19.70;96621.00;;;;5019439;28;20250;-67
2024/03/15 10:59:23;;;;;;;382.40;238.53;;;;;20.70;96608.00;;;;5028890;28;20613;-69
2024/03/15 11:02:13;;;;;;;393.03;241.77;;;;;21.10;96616.00;;;;5029474;28;20593;-69
2024/03/15 11:05:03;;;;;;;399.40;255.60;;;;;21.30;96628.00;;;;5027350;28;20197;-69
2024/03/15 11:08:02;;;;;;;409.73;275.67;;;;;21.40;96627.00;;;;5024576;28;20568;-69
2024/03/15 11:10:55;;;;;;;417.47;285.50;;;;;21.60;96614.00;;;;5026800;28;20715;-69
2024/03/15 11:13:47;;;;;;;408.07;279.47;;;;;22.10;96613.00;;;;5014598;28;20241;-70
2024/03/15 11:16:36;;;;;;;400.40;285.55;;;;;22.30;96618.00;;;;5020140;28;20682;-70
2024/03/15 11:19:25;;;;;;;407.67;307.03;;;;;21.70;96619.00;;;;5034299;28;21202;-69
2024/03/15 11:22:19;;;;;;;394.13;298.47;;;;;21.20;96625.00;;;;5021667;28;20201;-69
2024/03/15 11:25:09;;;;;;;401.77;306.57;;;;;22.10;96621.00;;;;5024668;28;20205;-69
2024/03/15 11:27:58;;;;;;;417.90;318.97;;;;;21.90;96621.00;;;;5032074;28;20207;-69
2024/03/15 11:30:48;;;;;;;430.77;333.40;;;;;21.50;96618.00;;;;5018430;28;20231;-69
2024/03/15 11:33:37;;;;;;;407.97;318.43;;;;;20.90;96617.00;;;;5016841;28;20216;-69
2024/03/15 11:36:27;;;;;;;412.83;322.10;;;;;22.30;96609.00;;;;5013006;28;20259;-68
2024/03/15 11:39:16;;;;;;;410.50;325.80;;;;;23.00;96597.00;;;;5024058;28;20208;-69
2024/03/15 11:42:06;;;;;;;413.30;338.90;;;;;23.00;96625.00;;;;5017443;28;20221;-70
2024/03/15 11:44:56;;;;;;;423.33;342.77;;;;;21.40;96609.00;;;;5022389;28;20297;-69
2024/03/15 11:47:45;;;;;;;420.20;337.40;;;;;21.80;96622.00;;;;5021669;28;20207;-69
2024/03/15 11:50:35;;;;;;;416.03;338.17;;;;;21.80;96625.00;;;;5031424;28;20196;-70
2024/03/15 11:53:25;;;;;;;410.37;331.37;;;;;21.70;96618.00;;;;5022659;28;20237;-69
2024/03/15 11:56:14;;;;;;;407.17;322.80;;;;;21.30;96624.00;;;;5017742;28;20204;-70
2024/03/15 11:59:03;;;;;;;420.13;326.87;;;;;20.90;96617.00;;;;5022661;28;20233;-68
2024/03/15 12:01:53;;;;;;;425.57;329.00;;;;;20.70;96609.00;;;;5019573;28;20209;-69
2024/03/15 12:04:42;;;;;;;422.70;321.20;;;;;19.40;96597.00;;;;5028485;28;20236;-69
2024/03/15 12:07:31;;;;;;;408.47;303.37;;;;;20.20;96596.00;;;;5010249;28;20196;-69
2024/03/15 12:10:20;;;;;;;403.67;293.50;;;;;19.30;96591.00;;;;5026721;28;20201;-69
2024/03/15 12:13:16;;;;;;;402.90;292.70;;;;;19.90;96570.00;;;;5021569;28;20278;-69
2024/03/15 12:16:05;;;;;;;402.50;284.40;;;;;20.10;96585.00;;;;5029750;28;20205;-69
2024/03/15 12:18:55;;;;;;;413.80;293.60;;;;;21.40;96561.00;;;;5027734;28;20235;-70
2024/03/15 12:21:44;;;;;;;418.77;304.07;;;;;21.50;96583.00;;;;5022578;28;20202;-70
2024/03/15 12:24:33;;;;;;;408.73;309.43;;;;;22.30;96578.00;;;;5016635;28;20232;-69
2024/03/15 12:27:23;;;;;;;403.10;312.30;;;;;23.00;96594.00;;;;5022012;28;20193;-68
2024/03/15 12:30:12;;;;;;;427.27;334.93;;;;;22.60;96588.00;;;;5019274;28;20219;-69
2024/03/15 12:33:02;;;;;;;413.93;329.73;;;;;22.60;96582.00;;;;5021784;28;20717;-69
2024/03/15 12:35:52;;;;;;;432.13;351.93;;;;;22.50;96587.00;;;;5010657;28;20299;-68
2024/03/15 12:38:42;;;;;;;438.60;357.97;;;;;22.60;96574.00;;;;5015387;28;20209;-69
2024/03/15 12:41:31;;;;;;;426.83;350.43;;;;;22.50;96578.00;;;;5012824;28;20212;-69
2024/03/15 12:44:21;;;;;;;416.87;344.20;;;;;22.90;96560.00;;;;5016061;28;20217;-69
2024/03/15 12:47:10;;;;;;;419.43;346.50;;;;;23.40;96562.00;;;;5018824;28;20208;-69
2024/03/15 12:49:59;;;;;;;414.23;351.60;;;;;23.50;96558.00;;;;5011755;28;20196;-68
2024/03/15 12:52:48;;;;;;;436.67;374.23;;;;;24.10;96560.00;;;;5020580;28;20213;-68
2024/03/15 12:55:38;;;;;;;442.60;381.73;;;;;24.00;96544.00;;;;5025235;28;20213;-68
2024/03/15 12:58:27;;;;;;;422.67;373.47;;;;;24.80;96544.00;;;;5020449;28;20208;-68
2024/03/15 13:01:16;;;;;;;446.20;398.30;;;;;25.20;96545.00;;;;5017282;28;20303;-68
2024/03/15 13:04:05;;;;;;;463.63;415.50;;;;;25.40;96554.00;;;;5019821;28;20236;-69
2024/03/15 13:06:54;;;;;;;479.53;430.17;;;;;25.60;96548.00;;;;5019029;28;20266;-68
2024/03/15 13:09:44;;;;;;;503.90;452.93;;;;;25.80;96537.00;;;;5016572;28;20203;-68
2024/03/15 13:12:33;;;;;;;505.97;456.83;;;;;27.00;96536.00;;;;5024429;28;20208;-67
2024/03/15 13:15:23;;;;;;;527.23;477.70;;;;;27.10;96535.00;;;;5017191;28;20254;-68
2024/03/15 13:18:13;;;;;;;539.67;490.30;;;;;27.20;96537.00;;;;5023749;28;20201;-68
2024/03/15 13:21:03;;;;;;;566.27;515.00;;;;;27.70;96538.00;;;;5025945;28;20209;-68
2024/03/15 13:23:53;;;;;;;584.27;532.23;;;;;27.90;96525.00;;;;5020699;28;20232;-69
2024/03/15 13:26:42;;;;;;;604.47;551.60;;;;;25.90;96523.00;;;;5011308;28;20223;-67
2024/03/15 13:29:31;;;;;;;606.00;554.67;;;;;26.70;96529.00;;;;5022536;28;20212;-69
2024/03/15 13:32:20;;;;;;;605.50;553.90;;;;;25.30;96508.00;;;;5016057;28;20212;-67
2024/03/15 13:35:11;;;;;;;611.10;559.70;;;;;26.00;96516.00;;;;5008954;28;20211;-68
2024/03/15 13:38:00;;;;;;;612.47;560.77;;;;;26.80;96517.00;;;;5019820;28;20219;-69
2024/03/15 13:40:50;;;;;;;616.20;563.17;;;;;26.80;96511.00;;;;5020398;28;20200;-68